sensor_id;sensor_type;location;lat;lon;timestamp;P1;durP1;ratioP1;P2;durP2;ratioP2
20271;SDS011;10295;49.812;9.866;2023-11-21T00:00:15;10.97;;;2.83;;
20271;SDS011;10295;49.812;9.866;2023-11-21T00:02:43;19.67;;;3.43;;
20271;SDS011;10295;49.812;9.866;2023-11-21T00:05:14;12.27;;;3.10;;
20271;SDS011;10295;49.812;9.866;2023-11-21T00:07:42;11.77;;;3.13;;
20271;SDS011;10295;49.812;9.866;2023-11-21T00:10:10;15.80;;;3.70;;
20271;SDS011;10295;49.812;9.866;2023-11-21T00:12:38;11.37;;;3.30;;
20271;SDS011;10295;49.812;9.866;2023-11-21T00:15:08;10.97;;;3.10;;
20271;SDS011;10295;49.812;9.866;2023-11-21T00:17:37;12.13;;;3.60;;
20271;SDS011;10295;49.812;9.866;2023-11-21T00:20:06;11.50;;;3.13;;
20271;SDS011;10295;49.812;9.866;2023-11-21T00:22:34;11.27;;;3.70;;
20271;SDS011;10295;49.812;9.866;2023-11-21T00:25:02;11.80;;;3.73;;
20271;SDS011;10295;49.812;9.866;2023-11-21T00:27:30;12.87;;;3.27;;
20271;SDS011;10295;49.812;9.866;2023-11-21T00:29:57;11.40;;;3.80;;
20271;SDS011;10295;49.812;9.866;2023-11-21T00:32:24;12.60;;;3.10;;
20271;SDS011;10295;49.812;9.866;2023-11-21T00:34:51;13.10;;;4.27;;
20271;SDS011;10295;49.812;9.866;2023-11-21T00:37:20;13.93;;;3.60;;
20271;SDS011;10295;49.812;9.866;2023-11-21T00:39:48;12.47;;;3.73;;
20271;SDS011;10295;49.812;9.866;2023-11-21T00:42:15;10.77;;;3.50;;
20271;SDS011;10295;49.812;9.866;2023-11-21T00:44:42;12.70;;;3.60;;
20271;SDS011;10295;49.812;9.866;2023-11-21T00:47:09;11.93;;;3.27;;
20271;SDS011;10295;49.812;9.866;2023-11-21T00:49:36;13.37;;;3.43;;
20271;SDS011;10295;49.812;9.866;2023-11-21T00:52:06;11.00;;;3.60;;
20271;SDS011;10295;49.812;9.866;2023-11-21T00:54:33;10.73;;;3.17;;
20271;SDS011;10295;49.812;9.866;2023-11-21T00:57:00;13.47;;;3.80;;
20271;SDS011;10295;49.812;9.866;2023-11-21T00:59:28;12.13;;;3.30;;
20271;SDS011;10295;49.812;9.866;2023-11-21T01:01:55;14.47;;;3.33;;
20271;SDS011;10295;49.812;9.866;2023-11-21T01:04:22;14.90;;;3.50;;
20271;SDS011;10295;49.812;9.866;2023-11-21T01:06:49;12.07;;;3.40;;
20271;SDS011;10295;49.812;9.866;2023-11-21T01:09:17;11.83;;;3.27;;
20271;SDS011;10295;49.812;9.866;2023-11-21T01:11:44;15.00;;;3.30;;
20271;SDS011;10295;49.812;9.866;2023-11-21T01:14:12;15.67;;;3.40;;
20271;SDS011;10295;49.812;9.866;2023-11-21T01:16:40;14.93;;;2.93;;
20271;SDS011;10295;49.812;9.866;2023-11-21T01:19:07;16.07;;;3.40;;
20271;SDS011;10295;49.812;9.866;2023-11-21T01:21:35;9.93;;;3.30;;
20271;SDS011;10295;49.812;9.866;2023-11-21T01:24:03;12.67;;;3.80;;
20271;SDS011;10295;49.812;9.866;2023-11-21T01:26:33;12.57;;;3.40;;
20271;SDS011;10295;49.812;9.866;2023-11-21T01:29:00;12.60;;;3.33;;
20271;SDS011;10295;49.812;9.866;2023-11-21T01:31:28;12.67;;;3.30;;
20271;SDS011;10295;49.812;9.866;2023-11-21T01:33:56;11.90;;;3.50;;
20271;SDS011;10295;49.812;9.866;2023-11-21T01:36:23;13.70;;;3.67;;
20271;SDS011;10295;49.812;9.866;2023-11-21T01:38:58;11.03;;;3.60;;
20271;SDS011;10295;49.812;9.866;2023-11-21T01:41:26;14.80;;;3.20;;
20271;SDS011;10295;49.812;9.866;2023-11-21T01:43:53;14.80;;;3.87;;
20271;SDS011;10295;49.812;9.866;2023-11-21T01:46:20;16.03;;;3.90;;
20271;SDS011;10295;49.812;9.866;2023-11-21T01:48:48;13.40;;;3.60;;
20271;SDS011;10295;49.812;9.866;2023-11-21T01:51:16;11.90;;;3.77;;
20271;SDS011;10295;49.812;9.866;2023-11-21T01:53:43;15.87;;;3.70;;
20271;SDS011;10295;49.812;9.866;2023-11-21T01:56:13;12.83;;;3.73;;
20271;SDS011;10295;49.812;9.866;2023-11-21T01:58:40;11.80;;;3.73;;
20271;SDS011;10295;49.812;9.866;2023-11-21T02:01:07;12.10;;;4.50;;
20271;SDS011;10295;49.812;9.866;2023-11-21T02:03:36;17.07;;;4.30;;
20271;SDS011;10295;49.812;9.866;2023-11-21T02:06:03;14.87;;;4.30;;
20271;SDS011;10295;49.812;9.866;2023-11-21T02:08:31;12.50;;;4.40;;
20271;SDS011;10295;49.812;9.866;2023-11-21T02:10:59;13.60;;;4.10;;
20271;SDS011;10295;49.812;9.866;2023-11-21T02:13:26;12.03;;;4.80;;
20271;SDS011;10295;49.812;9.866;2023-11-21T02:15:54;14.00;;;4.37;;
20271;SDS011;10295;49.812;9.866;2023-11-21T02:18:22;11.17;;;3.83;;
20271;SDS011;10295;49.812;9.866;2023-11-21T02:20:49;14.17;;;4.53;;
20271;SDS011;10295;49.812;9.866;2023-11-21T02:23:17;14.93;;;4.10;;
20271;SDS011;10295;49.812;9.866;2023-11-21T02:25:44;14.63;;;4.60;;
20271;SDS011;10295;49.812;9.866;2023-11-21T02:28:11;18.57;;;4.73;;
20271;SDS011;10295;49.812;9.866;2023-11-21T02:30:41;17.10;;;4.60;;
20271;SDS011;10295;49.812;9.866;2023-11-21T02:33:09;13.73;;;4.47;;
20271;SDS011;10295;49.812;9.866;2023-11-21T02:35:38;16.30;;;4.33;;
20271;SDS011;10295;49.812;9.866;2023-11-21T02:38:06;16.90;;;4.67;;
20271;SDS011;10295;49.812;9.866;2023-11-21T02:40:33;14.67;;;4.20;;
20271;SDS011;10295;49.812;9.866;2023-11-21T02:43:00;14.03;;;4.40;;
20271;SDS011;10295;49.812;9.866;2023-11-21T02:45:27;13.30;;;4.17;;
20271;SDS011;10295;49.812;9.866;2023-11-21T02:47:55;15.53;;;4.77;;
20271;SDS011;10295;49.812;9.866;2023-11-21T02:50:24;14.80;;;4.60;;
20271;SDS011;10295;49.812;9.866;2023-11-21T02:52:51;14.83;;;4.50;;
20271;SDS011;10295;49.812;9.866;2023-11-21T02:55:18;19.13;;;4.50;;
20271;SDS011;10295;49.812;9.866;2023-11-21T02:57:46;12.73;;;4.30;;
20271;SDS011;10295;49.812;9.866;2023-11-21T03:00:13;17.47;;;5.03;;
20271;SDS011;10295;49.812;9.866;2023-11-21T03:02:41;15.67;;;5.33;;
20271;SDS011;10295;49.812;9.866;2023-11-21T03:05:09;16.47;;;4.70;;
20271;SDS011;10295;49.812;9.866;2023-11-21T03:07:37;13.93;;;4.60;;
20271;SDS011;10295;49.812;9.866;2023-11-21T03:10:05;13.83;;;4.77;;
20271;SDS011;10295;49.812;9.866;2023-11-21T03:12:32;15.80;;;4.63;;
20271;SDS011;10295;49.812;9.866;2023-11-21T03:14:59;20.30;;;4.97;;
20271;SDS011;10295;49.812;9.866;2023-11-21T03:17:28;12.97;;;5.10;;
20271;SDS011;10295;49.812;9.866;2023-11-21T03:19:55;15.17;;;4.97;;
20271;SDS011;10295;49.812;9.866;2023-11-21T03:22:23;21.13;;;5.43;;
20271;SDS011;10295;49.812;9.866;2023-11-21T03:24:50;18.17;;;5.17;;
20271;SDS011;10295;49.812;9.866;2023-11-21T03:27:18;15.33;;;4.90;;
20271;SDS011;10295;49.812;9.866;2023-11-21T03:29:45;20.10;;;6.13;;
20271;SDS011;10295;49.812;9.866;2023-11-21T03:32:13;17.20;;;5.70;;
20271;SDS011;10295;49.812;9.866;2023-11-21T03:34:53;17.67;;;7.50;;
20271;SDS011;10295;49.812;9.866;2023-11-21T03:37:21;18.57;;;7.23;;
20271;SDS011;10295;49.812;9.866;2023-11-21T03:39:49;21.13;;;5.67;;
20271;SDS011;10295;49.812;9.866;2023-11-21T03:42:16;19.60;;;6.80;;
20271;SDS011;10295;49.812;9.866;2023-11-21T03:44:44;19.30;;;6.60;;
20271;SDS011;10295;49.812;9.866;2023-11-21T03:47:11;17.43;;;7.10;;
20271;SDS011;10295;49.812;9.866;2023-11-21T03:49:38;21.80;;;6.90;;
20271;SDS011;10295;49.812;9.866;2023-11-21T03:52:05;18.77;;;7.30;;
20271;SDS011;10295;49.812;9.866;2023-11-21T03:54:34;18.33;;;7.67;;
20271;SDS011;10295;49.812;9.866;2023-11-21T03:57:01;20.93;;;7.73;;
20271;SDS011;10295;49.812;9.866;2023-11-21T03:59:28;20.13;;;7.90;;
20271;SDS011;10295;49.812;9.866;2023-11-21T04:01:56;20.67;;;8.30;;
20271;SDS011;10295;49.812;9.866;2023-11-21T04:04:23;21.83;;;8.20;;
20271;SDS011;10295;49.812;9.866;2023-11-21T04:06:51;22.63;;;9.13;;
20271;SDS011;10295;49.812;9.866;2023-11-21T04:09:18;20.63;;;9.13;;
20271;SDS011;10295;49.812;9.866;2023-11-21T04:11:45;24.70;;;8.63;;
20271;SDS011;10295;49.812;9.866;2023-11-21T04:14:13;23.83;;;8.77;;
20271;SDS011;10295;49.812;9.866;2023-11-21T04:16:40;23.20;;;8.30;;
20271;SDS011;10295;49.812;9.866;2023-11-21T04:19:08;20.73;;;8.70;;
20271;SDS011;10295;49.812;9.866;2023-11-21T04:21:37;24.23;;;9.83;;
20271;SDS011;10295;49.812;9.866;2023-11-21T04:24:04;28.03;;;9.57;;
20271;SDS011;10295;49.812;9.866;2023-11-21T04:26:32;25.17;;;9.77;;
20271;SDS011;10295;49.812;9.866;2023-11-21T04:28:59;24.33;;;10.07;;
20271;SDS011;10295;49.812;9.866;2023-11-21T04:31:26;26.93;;;10.20;;
20271;SDS011;10295;49.812;9.866;2023-11-21T04:33:54;27.23;;;10.00;;
20271;SDS011;10295;49.812;9.866;2023-11-21T04:36:21;20.27;;;8.37;;
20271;SDS011;10295;49.812;9.866;2023-11-21T04:38:48;24.60;;;9.20;;
20271;SDS011;10295;49.812;9.866;2023-11-21T04:41:15;25.77;;;9.10;;
20271;SDS011;10295;49.812;9.866;2023-11-21T04:43:44;24.10;;;9.17;;
20271;SDS011;10295;49.812;9.866;2023-11-21T04:46:11;21.30;;;10.00;;
20271;SDS011;10295;49.812;9.866;2023-11-21T04:48:38;26.30;;;9.70;;
20271;SDS011;10295;49.812;9.866;2023-11-21T04:51:05;29.70;;;10.30;;
20271;SDS011;10295;49.812;9.866;2023-11-21T04:53:33;21.90;;;9.60;;
20271;SDS011;10295;49.812;9.866;2023-11-21T04:56:01;29.83;;;10.90;;
20271;SDS011;10295;49.812;9.866;2023-11-21T04:58:29;25.27;;;10.43;;
20271;SDS011;10295;49.812;9.866;2023-11-21T05:00:57;20.10;;;8.93;;
20271;SDS011;10295;49.812;9.866;2023-11-21T05:03:24;25.90;;;8.53;;
20271;SDS011;10295;49.812;9.866;2023-11-21T05:05:52;21.77;;;9.57;;
20271;SDS011;10295;49.812;9.866;2023-11-21T05:08:19;23.67;;;10.37;;
20271;SDS011;10295;49.812;9.866;2023-11-21T05:10:48;24.40;;;9.00;;
20271;SDS011;10295;49.812;9.866;2023-11-21T05:13:16;22.17;;;9.73;;
20271;SDS011;10295;49.812;9.866;2023-11-21T05:15:44;24.10;;;10.17;;
20271;SDS011;10295;49.812;9.866;2023-11-21T05:18:11;31.70;;;10.47;;
20271;SDS011;10295;49.812;9.866;2023-11-21T05:20:41;25.97;;;10.20;;
20271;SDS011;10295;49.812;9.866;2023-11-21T05:23:09;23.10;;;9.67;;
20271;SDS011;10295;49.812;9.866;2023-11-21T05:25:36;23.53;;;10.40;;
20271;SDS011;10295;49.812;9.866;2023-11-21T05:28:06;32.70;;;9.60;;
20271;SDS011;10295;49.812;9.866;2023-11-21T05:30:33;28.40;;;10.87;;
20271;SDS011;10295;49.812;9.866;2023-11-21T05:33:01;22.63;;;10.00;;
20271;SDS011;10295;49.812;9.866;2023-11-21T05:35:28;23.13;;;10.00;;
20271;SDS011;10295;49.812;9.866;2023-11-21T05:37:55;24.03;;;10.23;;
20271;SDS011;10295;49.812;9.866;2023-11-21T05:40:22;23.20;;;9.47;;
20271;SDS011;10295;49.812;9.866;2023-11-21T05:42:50;20.53;;;9.93;;
20271;SDS011;10295;49.812;9.866;2023-11-21T05:45:18;22.97;;;10.50;;
20271;SDS011;10295;49.812;9.866;2023-11-21T05:47:45;26.70;;;10.37;;
20271;SDS011;10295;49.812;9.866;2023-11-21T05:50:14;23.40;;;10.50;;
20271;SDS011;10295;49.812;9.866;2023-11-21T05:52:42;29.63;;;12.53;;
20271;SDS011;10295;49.812;9.866;2023-11-21T05:55:10;29.57;;;11.20;;
20271;SDS011;10295;49.812;9.866;2023-11-21T05:57:38;22.60;;;11.00;;
20271;SDS011;10295;49.812;9.866;2023-11-21T06:00:06;21.53;;;10.17;;
20271;SDS011;10295;49.812;9.866;2023-11-21T06:02:38;28.10;;;11.47;;
20271;SDS011;10295;49.812;9.866;2023-11-21T06:05:09;26.47;;;11.77;;
20271;SDS011;10295;49.812;9.866;2023-11-21T06:07:37;28.23;;;11.87;;
20271;SDS011;10295;49.812;9.866;2023-11-21T06:10:04;28.53;;;12.20;;
20271;SDS011;10295;49.812;9.866;2023-11-21T06:12:34;27.77;;;12.23;;
20271;SDS011;10295;49.812;9.866;2023-11-21T06:15:02;31.63;;;13.43;;
20271;SDS011;10295;49.812;9.866;2023-11-21T06:17:31;27.93;;;13.20;;
20271;SDS011;10295;49.812;9.866;2023-11-21T06:19:58;34.23;;;13.63;;
20271;SDS011;10295;49.812;9.866;2023-11-21T06:22:27;30.57;;;13.47;;
20271;SDS011;10295;49.812;9.866;2023-11-21T06:24:56;29.00;;;12.77;;
20271;SDS011;10295;49.812;9.866;2023-11-21T06:27:24;32.60;;;13.27;;
20271;SDS011;10295;49.812;9.866;2023-11-21T06:29:51;32.97;;;13.23;;
20271;SDS011;10295;49.812;9.866;2023-11-21T06:32:18;34.67;;;14.43;;
20271;SDS011;10295;49.812;9.866;2023-11-21T06:34:47;32.63;;;13.83;;
20271;SDS011;10295;49.812;9.866;2023-11-21T06:37:14;24.67;;;12.37;;
20271;SDS011;10295;49.812;9.866;2023-11-21T06:39:43;28.07;;;13.83;;
20271;SDS011;10295;49.812;9.866;2023-11-21T06:42:10;29.80;;;13.27;;
20271;SDS011;10295;49.812;9.866;2023-11-21T06:44:37;26.80;;;11.30;;
20271;SDS011;10295;49.812;9.866;2023-11-21T06:47:05;26.80;;;11.80;;
20271;SDS011;10295;49.812;9.866;2023-11-21T06:49:32;26.80;;;11.37;;
20271;SDS011;10295;49.812;9.866;2023-11-21T06:51:59;27.10;;;10.73;;
20271;SDS011;10295;49.812;9.866;2023-11-21T06:54:28;27.23;;;10.20;;
20271;SDS011;10295;49.812;9.866;2023-11-21T06:56:56;27.57;;;9.67;;
20271;SDS011;10295;49.812;9.866;2023-11-21T06:59:23;21.93;;;9.80;;
20271;SDS011;10295;49.812;9.866;2023-11-21T07:01:50;24.80;;;9.90;;
20271;SDS011;10295;49.812;9.866;2023-11-21T07:04:18;27.87;;;9.47;;
20271;SDS011;10295;49.812;9.866;2023-11-21T07:06:45;22.50;;;8.90;;
20271;SDS011;10295;49.812;9.866;2023-11-21T07:09:12;27.47;;;11.13;;
20271;SDS011;10295;49.812;9.866;2023-11-21T07:11:40;39.40;;;20.07;;
20271;SDS011;10295;49.812;9.866;2023-11-21T07:14:09;26.50;;;12.57;;
20271;SDS011;10295;49.812;9.866;2023-11-21T07:16:36;26.10;;;11.33;;
20271;SDS011;10295;49.812;9.866;2023-11-21T07:19:04;25.87;;;10.57;;
20271;SDS011;10295;49.812;9.866;2023-11-21T07:21:35;23.30;;;10.73;;
20271;SDS011;10295;49.812;9.866;2023-11-21T07:24:03;28.73;;;11.33;;
20271;SDS011;10295;49.812;9.866;2023-11-21T07:26:30;33.40;;;11.97;;
20271;SDS011;10295;49.812;9.866;2023-11-21T07:28:57;24.43;;;11.47;;
20271;SDS011;10295;49.812;9.866;2023-11-21T07:31:25;30.97;;;11.63;;
20271;SDS011;10295;49.812;9.866;2023-11-21T07:33:52;25.50;;;11.30;;
20271;SDS011;10295;49.812;9.866;2023-11-21T07:36:19;23.33;;;10.73;;
20271;SDS011;10295;49.812;9.866;2023-11-21T07:38:49;27.63;;;12.57;;
20271;SDS011;10295;49.812;9.866;2023-11-21T07:41:17;31.77;;;12.60;;
20271;SDS011;10295;49.812;9.866;2023-11-21T07:43:56;31.03;;;12.13;;
20271;SDS011;10295;49.812;9.866;2023-11-21T07:46:25;25.37;;;12.10;;
20271;SDS011;10295;49.812;9.866;2023-11-21T07:48:53;28.30;;;11.57;;
20271;SDS011;10295;49.812;9.866;2023-11-21T07:51:21;24.80;;;11.73;;
20271;SDS011;10295;49.812;9.866;2023-11-21T07:53:48;31.60;;;11.60;;
20271;SDS011;10295;49.812;9.866;2023-11-21T07:56:16;29.13;;;12.27;;
20271;SDS011;10295;49.812;9.866;2023-11-21T07:58:44;27.57;;;12.40;;
20271;SDS011;10295;49.812;9.866;2023-11-21T08:01:12;27.87;;;12.17;;
20271;SDS011;10295;49.812;9.866;2023-11-21T08:03:39;26.40;;;10.53;;
20271;SDS011;10295;49.812;9.866;2023-11-21T08:06:06;31.17;;;10.93;;
20271;SDS011;10295;49.812;9.866;2023-11-21T08:08:33;29.83;;;11.33;;
20271;SDS011;10295;49.812;9.866;2023-11-21T08:11:01;27.40;;;11.67;;
20271;SDS011;10295;49.812;9.866;2023-11-21T08:13:30;27.63;;;11.67;;
20271;SDS011;10295;49.812;9.866;2023-11-21T08:15:57;22.30;;;10.97;;
20271;SDS011;10295;49.812;9.866;2023-11-21T08:18:29;26.77;;;11.37;;
20271;SDS011;10295;49.812;9.866;2023-11-21T08:20:57;26.23;;;11.70;;
20271;SDS011;10295;49.812;9.866;2023-11-21T08:23:24;31.60;;;13.90;;
20271;SDS011;10295;49.812;9.866;2023-11-21T08:25:52;29.23;;;13.30;;
20271;SDS011;10295;49.812;9.866;2023-11-21T08:28:19;22.80;;;11.07;;
20271;SDS011;10295;49.812;9.866;2023-11-21T08:30:52;22.60;;;10.50;;
20271;SDS011;10295;49.812;9.866;2023-11-21T08:33:20;26.80;;;11.20;;
20271;SDS011;10295;49.812;9.866;2023-11-21T08:35:48;25.43;;;10.90;;
20271;SDS011;10295;49.812;9.866;2023-11-21T08:38:16;25.53;;;11.10;;
20271;SDS011;10295;49.812;9.866;2023-11-21T08:40:44;24.87;;;11.53;;
20271;SDS011;10295;49.812;9.866;2023-11-21T08:43:11;31.93;;;12.20;;
20271;SDS011;10295;49.812;9.866;2023-11-21T08:45:40;27.80;;;12.57;;
20271;SDS011;10295;49.812;9.866;2023-11-21T08:48:07;29.50;;;13.57;;
20271;SDS011;10295;49.812;9.866;2023-11-21T08:50:35;31.30;;;13.20;;
20271;SDS011;10295;49.812;9.866;2023-11-21T08:53:02;35.60;;;14.40;;
20271;SDS011;10295;49.812;9.866;2023-11-21T08:55:29;33.70;;;13.97;;
20271;SDS011;10295;49.812;9.866;2023-11-21T08:57:56;33.20;;;13.30;;
20271;SDS011;10295;49.812;9.866;2023-11-21T09:00:27;29.37;;;12.40;;
20271;SDS011;10295;49.812;9.866;2023-11-21T09:02:55;31.87;;;12.90;;
20271;SDS011;10295;49.812;9.866;2023-11-21T09:05:22;31.83;;;12.87;;
20271;SDS011;10295;49.812;9.866;2023-11-21T09:07:49;27.83;;;11.83;;
20271;SDS011;10295;49.812;9.866;2023-11-21T09:10:16;31.53;;;12.80;;
20271;SDS011;10295;49.812;9.866;2023-11-21T09:12:44;26.97;;;11.77;;
20271;SDS011;10295;49.812;9.866;2023-11-21T09:15:11;23.43;;;10.77;;
20271;SDS011;10295;49.812;9.866;2023-11-21T09:17:39;28.07;;;11.80;;
20271;SDS011;10295;49.812;9.866;2023-11-21T09:20:07;24.80;;;11.50;;
20271;SDS011;10295;49.812;9.866;2023-11-21T09:22:36;24.63;;;10.83;;
20271;SDS011;10295;49.812;9.866;2023-11-21T09:25:04;23.43;;;10.50;;
20271;SDS011;10295;49.812;9.866;2023-11-21T09:27:31;26.53;;;10.30;;
20271;SDS011;10295;49.812;9.866;2023-11-21T09:29:58;21.13;;;9.50;;
20271;SDS011;10295;49.812;9.866;2023-11-21T09:32:25;24.33;;;11.23;;
20271;SDS011;10295;49.812;9.866;2023-11-21T09:34:53;24.10;;;9.70;;
20271;SDS011;10295;49.812;9.866;2023-11-21T09:37:24;19.63;;;8.90;;
20271;SDS011;10295;49.812;9.866;2023-11-21T09:39:53;17.67;;;8.87;;
20271;SDS011;10295;49.812;9.866;2023-11-21T09:44:51;16.27;;;7.83;;
20271;SDS011;10295;49.812;9.866;2023-11-21T09:47:25;18.40;;;7.87;;
20271;SDS011;10295;49.812;9.866;2023-11-21T09:49:52;15.50;;;6.80;;
20271;SDS011;10295;49.812;9.866;2023-11-21T09:52:25;15.23;;;6.73;;
20271;SDS011;10295;49.812;9.866;2023-11-21T09:54:53;17.47;;;6.93;;
20271;SDS011;10295;49.812;9.866;2023-11-21T09:57:20;15.67;;;6.70;;
20271;SDS011;10295;49.812;9.866;2023-11-21T09:59:49;13.53;;;6.80;;
20271;SDS011;10295;49.812;9.866;2023-11-21T10:02:18;14.57;;;6.50;;
20271;SDS011;10295;49.812;9.866;2023-11-21T10:04:47;14.63;;;5.83;;
20271;SDS011;10295;49.812;9.866;2023-11-21T10:07:14;13.20;;;5.97;;
20271;SDS011;10295;49.812;9.866;2023-11-21T10:09:44;15.87;;;5.60;;
20271;SDS011;10295;49.812;9.866;2023-11-21T10:12:11;11.87;;;5.40;;
20271;SDS011;10295;49.812;9.866;2023-11-21T10:14:41;10.77;;;5.27;;
20271;SDS011;10295;49.812;9.866;2023-11-21T10:17:10;14.20;;;5.17;;
20271;SDS011;10295;49.812;9.866;2023-11-21T10:19:38;10.50;;;4.67;;
20271;SDS011;10295;49.812;9.866;2023-11-21T10:22:06;10.40;;;4.60;;
20271;SDS011;10295;49.812;9.866;2023-11-21T10:24:35;12.23;;;4.50;;
20271;SDS011;10295;49.812;9.866;2023-11-21T10:27:17;11.90;;;4.47;;
20271;SDS011;10295;49.812;9.866;2023-11-21T10:29:45;12.00;;;3.90;;
20271;SDS011;10295;49.812;9.866;2023-11-21T10:32:12;9.80;;;3.10;;
20271;SDS011;10295;49.812;9.866;2023-11-21T10:34:39;9.83;;;3.20;;
20271;SDS011;10295;49.812;9.866;2023-11-21T10:37:11;11.07;;;3.27;;
20271;SDS011;10295;49.812;9.866;2023-11-21T10:39:39;10.43;;;3.40;;
20271;SDS011;10295;49.812;9.866;2023-11-21T10:42:07;11.80;;;3.13;;
20271;SDS011;10295;49.812;9.866;2023-11-21T10:44:36;8.73;;;3.00;;
20271;SDS011;10295;49.812;9.866;2023-11-21T10:47:04;9.33;;;3.33;;
20271;SDS011;10295;49.812;9.866;2023-11-21T10:49:31;9.43;;;3.63;;
20271;SDS011;10295;49.812;9.866;2023-11-21T10:51:59;10.47;;;3.30;;
20271;SDS011;10295;49.812;9.866;2023-11-21T10:54:26;9.40;;;3.43;;
20271;SDS011;10295;49.812;9.866;2023-11-21T10:56:57;12.10;;;3.30;;
20271;SDS011;10295;49.812;9.866;2023-11-21T10:59:31;7.73;;;3.20;;
20271;SDS011;10295;49.812;9.866;2023-11-21T11:01:59;10.53;;;3.37;;
20271;SDS011;10295;49.812;9.866;2023-11-21T11:04:30;12.13;;;3.20;;
20271;SDS011;10295;49.812;9.866;2023-11-21T11:06:59;9.33;;;2.80;;
20271;SDS011;10295;49.812;9.866;2023-11-21T11:09:31;10.40;;;3.40;;
20271;SDS011;10295;49.812;9.866;2023-11-21T11:12:01;9.20;;;2.77;;
20271;SDS011;10295;49.812;9.866;2023-11-21T11:14:31;8.27;;;2.77;;
20271;SDS011;10295;49.812;9.866;2023-11-21T11:16:58;9.33;;;3.20;;
20271;SDS011;10295;49.812;9.866;2023-11-21T11:19:27;7.03;;;2.60;;
20271;SDS011;10295;49.812;9.866;2023-11-21T11:34:47;8.57;;;2.67;;
20271;SDS011;10295;49.812;9.866;2023-11-21T11:37:16;7.17;;;2.40;;
20271;SDS011;10295;49.812;9.866;2023-11-21T11:39:43;10.50;;;2.43;;
20271;SDS011;10295;49.812;9.866;2023-11-21T11:42:12;9.43;;;2.67;;
20271;SDS011;10295;49.812;9.866;2023-11-21T11:47:15;11.83;;;3.00;;
20271;SDS011;10295;49.812;9.866;2023-11-21T11:50:01;11.07;;;3.13;;
20271;SDS011;10295;49.812;9.866;2023-11-21T11:52:37;11.83;;;2.77;;
20271;SDS011;10295;49.812;9.866;2023-11-21T11:55:07;11.13;;;2.70;;
20271;SDS011;10295;49.812;9.866;2023-11-21T11:57:36;6.87;;;2.77;;
20271;SDS011;10295;49.812;9.866;2023-11-21T12:02:50;8.40;;;2.80;;
20271;SDS011;10295;49.812;9.866;2023-11-21T12:05:19;9.40;;;2.63;;
20271;SDS011;10295;49.812;9.866;2023-11-21T12:10:20;8.03;;;2.40;;
20271;SDS011;10295;49.812;9.866;2023-11-21T12:12:49;8.30;;;2.20;;
20271;SDS011;10295;49.812;9.866;2023-11-21T12:15:16;9.10;;;2.43;;
20271;SDS011;10295;49.812;9.866;2023-11-21T12:17:44;10.20;;;2.77;;
20271;SDS011;10295;49.812;9.866;2023-11-21T12:20:12;8.33;;;2.60;;
20271;SDS011;10295;49.812;9.866;2023-11-21T12:25:10;9.37;;;2.30;;
20271;SDS011;10295;49.812;9.866;2023-11-21T12:27:43;8.27;;;2.57;;
20271;SDS011;10295;49.812;9.866;2023-11-21T12:30:12;8.80;;;2.23;;
20271;SDS011;10295;49.812;9.866;2023-11-21T12:32:42;7.10;;;2.10;;
20271;SDS011;10295;49.812;9.866;2023-11-21T12:35:10;5.47;;;1.80;;
20271;SDS011;10295;49.812;9.866;2023-11-21T12:37:38;6.45;;;1.88;;
20271;SDS011;10295;49.812;9.866;2023-11-21T12:40:06;8.38;;;1.80;;
20271;SDS011;10295;49.812;9.866;2023-11-21T12:42:41;5.90;;;1.70;;
20271;SDS011;10295;49.812;9.866;2023-11-21T12:47:43;6.28;;;1.73;;
20271;SDS011;10295;49.812;9.866;2023-11-21T12:50:20;5.93;;;1.77;;
20271;SDS011;10295;49.812;9.866;2023-11-21T12:52:50;7.28;;;1.63;;
20271;SDS011;10295;49.812;9.866;2023-11-21T12:55:20;8.10;;;2.00;;
20271;SDS011;10295;49.812;9.866;2023-11-21T12:57:48;6.65;;;1.88;;
20271;SDS011;10295;49.812;9.866;2023-11-21T13:00:27;6.68;;;1.60;;
20271;SDS011;10295;49.812;9.866;2023-11-21T13:02:56;7.57;;;1.83;;
20271;SDS011;10295;49.812;9.866;2023-11-21T13:05:25;6.07;;;1.75;;
20271;SDS011;10295;49.812;9.866;2023-11-21T13:07:53;8.45;;;2.00;;
20271;SDS011;10295;49.812;9.866;2023-11-21T13:10:22;7.00;;;1.90;;
20271;SDS011;10295;49.812;9.866;2023-11-21T13:12:53;6.38;;;1.98;;
20271;SDS011;10295;49.812;9.866;2023-11-21T13:15:21;7.07;;;2.05;;
20271;SDS011;10295;49.812;9.866;2023-11-21T13:17:48;9.18;;;1.88;;
20271;SDS011;10295;49.812;9.866;2023-11-21T13:20:17;8.27;;;2.13;;
20271;SDS011;10295;49.812;9.866;2023-11-21T13:22:49;7.20;;;2.00;;
20271;SDS011;10295;49.812;9.866;2023-11-21T13:25:21;10.67;;;2.30;;
20271;SDS011;10295;49.812;9.866;2023-11-21T13:27:48;7.40;;;2.00;;
20271;SDS011;10295;49.812;9.866;2023-11-21T13:30:16;8.60;;;2.07;;
20271;SDS011;10295;49.812;9.866;2023-11-21T13:32:49;8.77;;;2.10;;
20271;SDS011;10295;49.812;9.866;2023-11-21T13:35:18;8.07;;;2.23;;
20271;SDS011;10295;49.812;9.866;2023-11-21T13:37:57;10.13;;;2.30;;
20271;SDS011;10295;49.812;9.866;2023-11-21T13:40:26;8.70;;;2.70;;
20271;SDS011;10295;49.812;9.866;2023-11-21T13:42:53;10.37;;;3.20;;
20271;SDS011;10295;49.812;9.866;2023-11-21T13:45:21;7.40;;;2.60;;
20271;SDS011;10295;49.812;9.866;2023-11-21T13:47:49;12.00;;;2.70;;
20271;SDS011;10295;49.812;9.866;2023-11-21T13:50:18;8.60;;;2.73;;
20271;SDS011;10295;49.812;9.866;2023-11-21T13:52:51;8.93;;;2.47;;
20271;SDS011;10295;49.812;9.866;2023-11-21T13:55:19;7.93;;;2.10;;
20271;SDS011;10295;49.812;9.866;2023-11-21T13:57:50;8.37;;;2.30;;
20271;SDS011;10295;49.812;9.866;2023-11-21T14:00:18;8.13;;;2.10;;
20271;SDS011;10295;49.812;9.866;2023-11-21T14:03:04;8.63;;;2.30;;
20271;SDS011;10295;49.812;9.866;2023-11-21T14:05:37;9.37;;;2.13;;
20271;SDS011;10295;49.812;9.866;2023-11-21T14:08:05;12.73;;;2.90;;
20271;SDS011;10295;49.812;9.866;2023-11-21T14:10:32;12.00;;;3.10;;
20271;SDS011;10295;49.812;9.866;2023-11-21T14:13:09;12.40;;;3.70;;
20271;SDS011;10295;49.812;9.866;2023-11-21T14:15:37;15.37;;;4.33;;
20271;SDS011;10295;49.812;9.866;2023-11-21T14:18:11;12.87;;;3.90;;
20271;SDS011;10295;49.812;9.866;2023-11-21T14:20:40;12.73;;;4.33;;
20271;SDS011;10295;49.812;9.866;2023-11-21T14:23:08;13.17;;;3.93;;
20271;SDS011;10295;49.812;9.866;2023-11-21T14:25:37;13.00;;;5.20;;
20271;SDS011;10295;49.812;9.866;2023-11-21T14:28:05;13.27;;;4.70;;
20271;SDS011;10295;49.812;9.866;2023-11-21T14:30:32;14.53;;;5.60;;
20271;SDS011;10295;49.812;9.866;2023-11-21T14:33:02;11.73;;;5.00;;
20271;SDS011;10295;49.812;9.866;2023-11-21T14:35:29;15.07;;;4.40;;
20271;SDS011;10295;49.812;9.866;2023-11-21T14:37:58;10.70;;;3.20;;
20271;SDS011;10295;49.812;9.866;2023-11-21T14:40:27;10.53;;;3.43;;
20271;SDS011;10295;49.812;9.866;2023-11-21T14:42:59;15.43;;;4.70;;
20271;SDS011;10295;49.812;9.866;2023-11-21T14:45:27;16.57;;;4.77;;
20271;SDS011;10295;49.812;9.866;2023-11-21T14:47:55;15.40;;;5.33;;
20271;SDS011;10295;49.812;9.866;2023-11-21T14:50:32;18.53;;;5.30;;
20271;SDS011;10295;49.812;9.866;2023-11-21T14:53:16;13.70;;;5.00;;
20271;SDS011;10295;49.812;9.866;2023-11-21T14:55:57;16.23;;;5.93;;
20271;SDS011;10295;49.812;9.866;2023-11-21T14:58:26;17.43;;;6.60;;
20271;SDS011;10295;49.812;9.866;2023-11-21T15:00:56;20.97;;;7.83;;
20271;SDS011;10295;49.812;9.866;2023-11-21T15:03:25;22.87;;;8.57;;
20271;SDS011;10295;49.812;9.866;2023-11-21T15:05:59;15.43;;;5.60;;
20271;SDS011;10295;49.812;9.866;2023-11-21T15:08:55;20.67;;;6.47;;